sensor_id;sensor_type;location;lat;lon;timestamp;P1;durP1;ratioP1;P2;durP2;ratioP2
48534;SDS011;34323;52.022;5.686;2023-04-06T00:01:00;12.13;;;6.43;;
48534;SDS011;34323;52.022;5.686;2023-04-06T00:03:25;14.05;;;6.63;;
48534;SDS011;34323;52.022;5.686;2023-04-06T00:05:51;12.13;;;6.55;;
48534;SDS011;34323;52.022;5.686;2023-04-06T00:08:17;13.93;;;7.05;;
48534;SDS011;34323;52.022;5.686;2023-04-06T00:10:43;13.27;;;6.82;;
48534;SDS011;34323;52.022;5.686;2023-04-06T00:13:08;18.45;;;7.28;;
48534;SDS011;34323;52.022;5.686;2023-04-06T00:15:34;15.63;;;6.63;;
48534;SDS011;34323;52.022;5.686;2023-04-06T00:18:00;16.10;;;7.00;;
48534;SDS011;34323;52.022;5.686;2023-04-06T00:20:25;12.18;;;6.22;;
48534;SDS011;34323;52.022;5.686;2023-04-06T00:22:51;12.23;;;7.18;;
48534;SDS011;34323;52.022;5.686;2023-04-06T00:25:17;14.00;;;6.80;;
48534;SDS011;34323;52.022;5.686;2023-04-06T00:27:42;14.10;;;7.35;;
48534;SDS011;34323;52.022;5.686;2023-04-06T00:30:08;10.15;;;5.68;;
48534;SDS011;34323;52.022;5.686;2023-04-06T00:32:34;14.15;;;6.43;;
48534;SDS011;34323;52.022;5.686;2023-04-06T00:35:04;12.65;;;7.18;;
48534;SDS011;34323;52.022;5.686;2023-04-06T00:37:30;17.13;;;7.63;;
48534;SDS011;34323;52.022;5.686;2023-04-06T00:39:56;14.75;;;7.28;;
48534;SDS011;34323;52.022;5.686;2023-04-06T00:42:22;11.73;;;6.45;;
48534;SDS011;34323;52.022;5.686;2023-04-06T00:44:52;10.98;;;6.43;;
48534;SDS011;34323;52.022;5.686;2023-04-06T00:47:18;12.98;;;6.43;;
48534;SDS011;34323;52.022;5.686;2023-04-06T00:49:44;14.30;;;6.72;;
48534;SDS011;34323;52.022;5.686;2023-04-06T00:52:09;10.68;;;7.32;;
48534;SDS011;34323;52.022;5.686;2023-04-06T00:54:35;15.45;;;7.32;;
48534;SDS011;34323;52.022;5.686;2023-04-06T00:57:00;16.88;;;6.90;;
48534;SDS011;34323;52.022;5.686;2023-04-06T00:59:27;11.82;;;6.85;;
48534;SDS011;34323;52.022;5.686;2023-04-06T01:01:53;10.93;;;6.45;;
48534;SDS011;34323;52.022;5.686;2023-04-06T01:04:19;10.52;;;6.50;;
48534;SDS011;34323;52.022;5.686;2023-04-06T01:06:47;13.02;;;7.20;;
48534;SDS011;34323;52.022;5.686;2023-04-06T01:09:13;13.60;;;6.65;;
48534;SDS011;34323;52.022;5.686;2023-04-06T01:11:39;10.65;;;6.30;;
48534;SDS011;34323;52.022;5.686;2023-04-06T01:14:05;14.02;;;7.55;;
48534;SDS011;34323;52.022;5.686;2023-04-06T01:16:31;14.98;;;7.60;;
48534;SDS011;34323;52.022;5.686;2023-04-06T01:18:56;12.55;;;6.88;;
48534;SDS011;34323;52.022;5.686;2023-04-06T01:21:22;16.17;;;6.72;;
48534;SDS011;34323;52.022;5.686;2023-04-06T01:23:48;12.43;;;6.55;;
48534;SDS011;34323;52.022;5.686;2023-04-06T01:26:13;11.73;;;6.93;;
48534;SDS011;34323;52.022;5.686;2023-04-06T01:28:39;10.68;;;6.55;;
48534;SDS011;34323;52.022;5.686;2023-04-06T01:31:08;14.35;;;6.88;;
48534;SDS011;34323;52.022;5.686;2023-04-06T01:33:34;12.05;;;6.28;;
48534;SDS011;34323;52.022;5.686;2023-04-06T01:36:00;13.23;;;7.10;;
48534;SDS011;34323;52.022;5.686;2023-04-06T01:38:26;12.95;;;6.63;;
48534;SDS011;34323;52.022;5.686;2023-04-06T01:40:52;16.33;;;7.65;;
48534;SDS011;34323;52.022;5.686;2023-04-06T01:43:18;14.00;;;6.97;;
48534;SDS011;34323;52.022;5.686;2023-04-06T01:45:44;13.07;;;6.38;;
48534;SDS011;34323;52.022;5.686;2023-04-06T01:48:09;12.57;;;7.10;;
48534;SDS011;34323;52.022;5.686;2023-04-06T01:50:36;11.48;;;6.50;;
48534;SDS011;34323;52.022;5.686;2023-04-06T01:53:01;11.90;;;6.32;;
48534;SDS011;34323;52.022;5.686;2023-04-06T01:55:27;12.52;;;7.43;;
48534;SDS011;34323;52.022;5.686;2023-04-06T01:57:53;13.35;;;6.45;;
48534;SDS011;34323;52.022;5.686;2023-04-06T02:00:18;16.27;;;6.90;;
48534;SDS011;34323;52.022;5.686;2023-04-06T02:02:44;12.18;;;6.85;;
48534;SDS011;34323;52.022;5.686;2023-04-06T02:05:10;12.02;;;6.90;;
48534;SDS011;34323;52.022;5.686;2023-04-06T02:07:35;14.27;;;7.05;;
48534;SDS011;34323;52.022;5.686;2023-04-06T02:10:01;11.85;;;6.53;;
48534;SDS011;34323;52.022;5.686;2023-04-06T02:12:28;13.80;;;7.03;;
48534;SDS011;34323;52.022;5.686;2023-04-06T02:14:53;12.38;;;6.85;;
48534;SDS011;34323;52.022;5.686;2023-04-06T02:17:19;13.73;;;7.30;;
48534;SDS011;34323;52.022;5.686;2023-04-06T02:19:45;10.52;;;6.35;;
48534;SDS011;34323;52.022;5.686;2023-04-06T02:22:11;14.73;;;7.13;;
48534;SDS011;34323;52.022;5.686;2023-04-06T02:24:36;15.25;;;7.50;;
48534;SDS011;34323;52.022;5.686;2023-04-06T02:27:02;16.05;;;7.32;;
48534;SDS011;34323;52.022;5.686;2023-04-06T02:29:27;9.80;;;6.53;;
48534;SDS011;34323;52.022;5.686;2023-04-06T02:31:53;11.73;;;6.75;;
48534;SDS011;34323;52.022;5.686;2023-04-06T02:34:19;13.20;;;7.15;;
48534;SDS011;34323;52.022;5.686;2023-04-06T02:36:45;14.18;;;7.47;;
48534;SDS011;34323;52.022;5.686;2023-04-06T02:39:11;14.65;;;7.43;;
48534;SDS011;34323;52.022;5.686;2023-04-06T02:41:37;12.07;;;6.93;;
48534;SDS011;34323;52.022;5.686;2023-04-06T02:44:03;16.65;;;6.55;;
48534;SDS011;34323;52.022;5.686;2023-04-06T02:46:31;13.38;;;7.00;;
48534;SDS011;34323;52.022;5.686;2023-04-06T02:48:56;9.65;;;6.18;;
48534;SDS011;34323;52.022;5.686;2023-04-06T02:51:25;12.45;;;6.75;;
48534;SDS011;34323;52.022;5.686;2023-04-06T02:53:51;13.85;;;6.93;;
48534;SDS011;34323;52.022;5.686;2023-04-06T02:56:16;14.80;;;6.45;;
48534;SDS011;34323;52.022;5.686;2023-04-06T02:58:42;12.98;;;7.57;;
48534;SDS011;34323;52.022;5.686;2023-04-06T03:01:08;12.20;;;7.35;;
48534;SDS011;34323;52.022;5.686;2023-04-06T03:03:33;11.45;;;6.82;;
48534;SDS011;34323;52.022;5.686;2023-04-06T03:05:59;13.80;;;7.25;;
48534;SDS011;34323;52.022;5.686;2023-04-06T03:08:25;17.48;;;6.90;;
48534;SDS011;34323;52.022;5.686;2023-04-06T03:10:50;20.20;;;7.72;;
48534;SDS011;34323;52.022;5.686;2023-04-06T03:13:16;16.08;;;7.78;;
48534;SDS011;34323;52.022;5.686;2023-04-06T03:15:42;13.07;;;6.93;;
48534;SDS011;34323;52.022;5.686;2023-04-06T03:18:07;16.77;;;7.63;;
48534;SDS011;34323;52.022;5.686;2023-04-06T03:20:33;13.05;;;6.70;;
48534;SDS011;34323;52.022;5.686;2023-04-06T03:22:59;15.63;;;6.63;;
48534;SDS011;34323;52.022;5.686;2023-04-06T03:25:25;10.35;;;5.65;;
48534;SDS011;34323;52.022;5.686;2023-04-06T03:27:50;12.82;;;6.60;;
48534;SDS011;34323;52.022;5.686;2023-04-06T03:30:16;10.15;;;6.53;;
48534;SDS011;34323;52.022;5.686;2023-04-06T03:32:43;12.30;;;6.40;;
48534;SDS011;34323;52.022;5.686;2023-04-06T03:35:09;10.73;;;6.47;;
48534;SDS011;34323;52.022;5.686;2023-04-06T03:37:35;15.82;;;6.82;;
48534;SDS011;34323;52.022;5.686;2023-04-06T03:40:00;12.95;;;7.43;;
48534;SDS011;34323;52.022;5.686;2023-04-06T03:42:26;11.55;;;6.32;;
48534;SDS011;34323;52.022;5.686;2023-04-06T03:44:52;12.40;;;6.57;;
48534;SDS011;34323;52.022;5.686;2023-04-06T03:47:18;14.32;;;7.38;;
48534;SDS011;34323;52.022;5.686;2023-04-06T03:49:43;15.68;;;7.65;;
48534;SDS011;34323;52.022;5.686;2023-04-06T03:52:09;12.90;;;7.30;;
48534;SDS011;34323;52.022;5.686;2023-04-06T03:54:35;10.23;;;6.38;;
48534;SDS011;34323;52.022;5.686;2023-04-06T03:57:01;12.95;;;7.22;;
48534;SDS011;34323;52.022;5.686;2023-04-06T03:59:27;12.10;;;7.10;;
48534;SDS011;34323;52.022;5.686;2023-04-06T04:01:52;14.43;;;8.07;;
48534;SDS011;34323;52.022;5.686;2023-04-06T04:04:18;15.13;;;7.32;;
48534;SDS011;34323;52.022;5.686;2023-04-06T04:06:43;13.27;;;7.18;;
48534;SDS011;34323;52.022;5.686;2023-04-06T04:09:09;16.65;;;7.65;;
48534;SDS011;34323;52.022;5.686;2023-04-06T04:11:35;13.25;;;7.38;;
48534;SDS011;34323;52.022;5.686;2023-04-06T04:14:00;14.45;;;6.80;;
48534;SDS011;34323;52.022;5.686;2023-04-06T04:16:26;13.02;;;7.93;;
48534;SDS011;34323;52.022;5.686;2023-04-06T04:18:51;11.27;;;7.00;;
48534;SDS011;34323;52.022;5.686;2023-04-06T04:21:17;13.25;;;7.40;;
48534;SDS011;34323;52.022;5.686;2023-04-06T04:23:43;13.80;;;7.32;;
48534;SDS011;34323;52.022;5.686;2023-04-06T04:26:08;16.80;;;7.63;;
48534;SDS011;34323;52.022;5.686;2023-04-06T04:28:34;13.60;;;7.65;;
48534;SDS011;34323;52.022;5.686;2023-04-06T04:30:59;22.73;;;8.07;;
48534;SDS011;34323;52.022;5.686;2023-04-06T04:33:25;14.38;;;6.60;;
48534;SDS011;34323;52.022;5.686;2023-04-06T04:35:51;14.90;;;7.05;;
48534;SDS011;34323;52.022;5.686;2023-04-06T04:38:16;11.85;;;6.88;;
48534;SDS011;34323;52.022;5.686;2023-04-06T04:40:42;16.85;;;8.05;;
48534;SDS011;34323;52.022;5.686;2023-04-06T04:43:07;13.32;;;7.47;;
48534;SDS011;34323;52.022;5.686;2023-04-06T04:45:33;12.20;;;6.88;;
48534;SDS011;34323;52.022;5.686;2023-04-06T04:47:59;14.13;;;7.28;;
48534;SDS011;34323;52.022;5.686;2023-04-06T04:50:24;11.40;;;7.40;;
48534;SDS011;34323;52.022;5.686;2023-04-06T04:52:50;15.50;;;8.20;;
48534;SDS011;34323;52.022;5.686;2023-04-06T04:55:15;12.60;;;7.55;;
48534;SDS011;34323;52.022;5.686;2023-04-06T04:57:42;16.48;;;9.13;;
48534;SDS011;34323;52.022;5.686;2023-04-06T05:00:08;16.77;;;8.25;;
48534;SDS011;34323;52.022;5.686;2023-04-06T05:02:34;15.25;;;9.18;;
48534;SDS011;34323;52.022;5.686;2023-04-06T05:04:59;14.05;;;8.55;;
48534;SDS011;34323;52.022;5.686;2023-04-06T05:07:25;14.02;;;8.57;;
48534;SDS011;34323;52.022;5.686;2023-04-06T05:09:51;13.80;;;9.05;;
48534;SDS011;34323;52.022;5.686;2023-04-06T05:12:17;12.63;;;7.80;;
48534;SDS011;34323;52.022;5.686;2023-04-06T05:14:43;12.23;;;7.63;;
48534;SDS011;34323;52.022;5.686;2023-04-06T05:17:09;15.10;;;7.68;;
48534;SDS011;34323;52.022;5.686;2023-04-06T05:19:35;18.20;;;8.27;;
48534;SDS011;34323;52.022;5.686;2023-04-06T05:22:00;15.15;;;8.07;;
48534;SDS011;34323;52.022;5.686;2023-04-06T05:24:26;15.77;;;8.35;;
48534;SDS011;34323;52.022;5.686;2023-04-06T05:26:51;17.45;;;8.07;;
48534;SDS011;34323;52.022;5.686;2023-04-06T05:29:17;15.27;;;8.43;;
48534;SDS011;34323;52.022;5.686;2023-04-06T05:31:45;15.38;;;8.02;;
48534;SDS011;34323;52.022;5.686;2023-04-06T05:34:10;12.57;;;7.47;;
48534;SDS011;34323;52.022;5.686;2023-04-06T05:36:37;14.07;;;8.38;;
48534;SDS011;34323;52.022;5.686;2023-04-06T05:39:03;16.00;;;7.80;;
48534;SDS011;34323;52.022;5.686;2023-04-06T05:41:29;15.82;;;8.43;;
48534;SDS011;34323;52.022;5.686;2023-04-06T05:43:55;12.32;;;7.40;;
48534;SDS011;34323;52.022;5.686;2023-04-06T05:46:20;19.63;;;8.52;;
48534;SDS011;34323;52.022;5.686;2023-04-06T05:48:46;14.48;;;8.30;;
48534;SDS011;34323;52.022;5.686;2023-04-06T05:51:11;15.13;;;8.45;;
48534;SDS011;34323;52.022;5.686;2023-04-06T05:53:37;19.63;;;9.52;;
48534;SDS011;34323;52.022;5.686;2023-04-06T05:56:03;13.57;;;8.13;;
48534;SDS011;34323;52.022;5.686;2023-04-06T05:58:29;15.32;;;8.35;;
48534;SDS011;34323;52.022;5.686;2023-04-06T06:00:58;19.63;;;9.60;;
48534;SDS011;34323;52.022;5.686;2023-04-06T06:03:24;19.60;;;10.15;;
48534;SDS011;34323;52.022;5.686;2023-04-06T06:05:50;16.95;;;10.40;;
48534;SDS011;34323;52.022;5.686;2023-04-06T06:08:16;22.25;;;11.55;;
48534;SDS011;34323;52.022;5.686;2023-04-06T06:10:41;25.00;;;12.75;;
48534;SDS011;34323;52.022;5.686;2023-04-06T06:13:07;23.73;;;10.60;;
48534;SDS011;34323;52.022;5.686;2023-04-06T06:15:33;16.67;;;9.98;;
48534;SDS011;34323;52.022;5.686;2023-04-06T06:17:59;20.02;;;10.98;;
48534;SDS011;34323;52.022;5.686;2023-04-06T06:20:25;27.30;;;10.68;;
48534;SDS011;34323;52.022;5.686;2023-04-06T06:22:51;17.83;;;10.02;;
48534;SDS011;34323;52.022;5.686;2023-04-06T06:25:17;21.77;;;10.80;;
48534;SDS011;34323;52.022;5.686;2023-04-06T06:27:42;22.13;;;11.93;;
48534;SDS011;34323;52.022;5.686;2023-04-06T06:30:08;20.70;;;10.70;;
48534;SDS011;34323;52.022;5.686;2023-04-06T06:32:34;18.58;;;9.63;;
48534;SDS011;34323;52.022;5.686;2023-04-06T06:35:00;25.55;;;10.77;;
48534;SDS011;34323;52.022;5.686;2023-04-06T06:37:25;23.15;;;11.90;;
48534;SDS011;34323;52.022;5.686;2023-04-06T06:39:51;22.25;;;11.68;;
48534;SDS011;34323;52.022;5.686;2023-04-06T06:42:16;18.08;;;9.90;;
48534;SDS011;34323;52.022;5.686;2023-04-06T06:44:42;24.58;;;10.88;;
48534;SDS011;34323;52.022;5.686;2023-04-06T06:47:07;20.27;;;11.13;;
48534;SDS011;34323;52.022;5.686;2023-04-06T06:49:33;18.70;;;10.63;;
48534;SDS011;34323;52.022;5.686;2023-04-06T06:51:59;26.92;;;12.18;;
48534;SDS011;34323;52.022;5.686;2023-04-06T06:54:24;20.83;;;10.00;;
48534;SDS011;34323;52.022;5.686;2023-04-06T06:56:50;20.73;;;11.45;;
48534;SDS011;34323;52.022;5.686;2023-04-06T06:59:16;20.00;;;10.57;;
48534;SDS011;34323;52.022;5.686;2023-04-06T07:01:41;21.45;;;11.23;;
48534;SDS011;34323;52.022;5.686;2023-04-06T07:04:07;21.42;;;11.65;;
48534;SDS011;34323;52.022;5.686;2023-04-06T07:06:34;23.85;;;12.73;;
48534;SDS011;34323;52.022;5.686;2023-04-06T07:09:00;24.65;;;11.80;;
48534;SDS011;34323;52.022;5.686;2023-04-06T07:11:28;25.73;;;12.02;;
48534;SDS011;34323;52.022;5.686;2023-04-06T07:13:54;18.77;;;11.15;;
48534;SDS011;34323;52.022;5.686;2023-04-06T07:16:20;22.02;;;11.68;;
48534;SDS011;34323;52.022;5.686;2023-04-06T07:18:45;20.45;;;11.52;;
48534;SDS011;34323;52.022;5.686;2023-04-06T07:21:11;21.90;;;11.93;;
48534;SDS011;34323;52.022;5.686;2023-04-06T07:23:37;23.60;;;11.88;;
48534;SDS011;34323;52.022;5.686;2023-04-06T07:26:02;20.58;;;11.13;;
48534;SDS011;34323;52.022;5.686;2023-04-06T07:28:28;21.80;;;11.13;;
48534;SDS011;34323;52.022;5.686;2023-04-06T07:30:54;26.45;;;13.27;;
48534;SDS011;34323;52.022;5.686;2023-04-06T07:33:19;20.83;;;11.80;;
48534;SDS011;34323;52.022;5.686;2023-04-06T07:35:45;27.67;;;11.80;;
48534;SDS011;34323;52.022;5.686;2023-04-06T07:38:11;22.88;;;11.95;;
48534;SDS011;34323;52.022;5.686;2023-04-06T07:40:37;19.23;;;10.55;;
48534;SDS011;34323;52.022;5.686;2023-04-06T07:43:03;25.10;;;12.05;;
48534;SDS011;34323;52.022;5.686;2023-04-06T07:45:28;24.63;;;11.48;;
48534;SDS011;34323;52.022;5.686;2023-04-06T07:47:54;18.83;;;11.25;;
48534;SDS011;34323;52.022;5.686;2023-04-06T07:50:20;23.13;;;13.00;;
48534;SDS011;34323;52.022;5.686;2023-04-06T07:52:46;25.65;;;12.77;;
48534;SDS011;34323;52.022;5.686;2023-04-06T07:55:11;21.23;;;11.73;;
48534;SDS011;34323;52.022;5.686;2023-04-06T07:57:37;24.33;;;11.55;;
48534;SDS011;34323;52.022;5.686;2023-04-06T08:00:03;23.60;;;11.93;;
48534;SDS011;34323;52.022;5.686;2023-04-06T08:02:29;22.33;;;11.70;;
48534;SDS011;34323;52.022;5.686;2023-04-06T08:04:58;20.73;;;11.80;;
48534;SDS011;34323;52.022;5.686;2023-04-06T08:07:23;30.85;;;12.07;;
48534;SDS011;34323;52.022;5.686;2023-04-06T08:09:49;26.67;;;12.57;;
48534;SDS011;34323;52.022;5.686;2023-04-06T08:12:15;27.63;;;11.55;;
48534;SDS011;34323;52.022;5.686;2023-04-06T08:14:40;20.63;;;12.00;;
48534;SDS011;34323;52.022;5.686;2023-04-06T08:17:06;22.00;;;12.25;;
48534;SDS011;34323;52.022;5.686;2023-04-06T08:19:31;25.75;;;12.63;;
48534;SDS011;34323;52.022;5.686;2023-04-06T08:21:57;19.85;;;12.15;;
48534;SDS011;34323;52.022;5.686;2023-04-06T08:24:23;23.38;;;12.48;;
48534;SDS011;34323;52.022;5.686;2023-04-06T08:26:48;19.88;;;11.60;;
48534;SDS011;34323;52.022;5.686;2023-04-06T08:29:15;22.88;;;13.02;;
48534;SDS011;34323;52.022;5.686;2023-04-06T08:31:41;25.08;;;13.13;;
48534;SDS011;34323;52.022;5.686;2023-04-06T08:34:06;27.15;;;12.45;;
48534;SDS011;34323;52.022;5.686;2023-04-06T08:36:32;25.50;;;13.10;;
48534;SDS011;34323;52.022;5.686;2023-04-06T08:38:58;25.50;;;12.95;;
48534;SDS011;34323;52.022;5.686;2023-04-06T08:41:25;23.85;;;12.45;;
48534;SDS011;34323;52.022;5.686;2023-04-06T08:44:00;23.30;;;12.50;;
48534;SDS011;34323;52.022;5.686;2023-04-06T08:46:28;23.02;;;12.35;;
48534;SDS011;34323;52.022;5.686;2023-04-06T08:48:58;20.50;;;12.10;;
48534;SDS011;34323;52.022;5.686;2023-04-06T08:51:26;23.02;;;12.95;;
48534;SDS011;34323;52.022;5.686;2023-04-06T08:53:53;24.83;;;12.57;;
48534;SDS011;34323;52.022;5.686;2023-04-06T08:56:22;22.20;;;13.20;;
48534;SDS011;34323;52.022;5.686;2023-04-06T08:58:51;22.85;;;13.65;;
48534;SDS011;34323;52.022;5.686;2023-04-06T09:01:20;25.33;;;13.88;;
48534;SDS011;34323;52.022;5.686;2023-04-06T09:03:47;23.65;;;12.75;;
48534;SDS011;34323;52.022;5.686;2023-04-06T09:06:14;24.50;;;13.00;;
48534;SDS011;34323;52.022;5.686;2023-04-06T09:08:40;22.98;;;12.82;;
48534;SDS011;34323;52.022;5.686;2023-04-06T09:11:06;22.60;;;13.73;;
48534;SDS011;34323;52.022;5.686;2023-04-06T09:13:43;24.10;;;14.07;;
48534;SDS011;34323;52.022;5.686;2023-04-06T09:16:14;25.45;;;12.95;;
48534;SDS011;34323;52.022;5.686;2023-04-06T09:18:40;22.15;;;13.27;;
48534;SDS011;34323;52.022;5.686;2023-04-06T09:21:06;22.55;;;13.18;;
48534;SDS011;34323;52.022;5.686;2023-04-06T09:23:33;23.10;;;14.30;;
48534;SDS011;34323;52.022;5.686;2023-04-06T09:26:06;25.40;;;14.18;;
48534;SDS011;34323;52.022;5.686;2023-04-06T09:28:52;32.63;;;14.75;;
48534;SDS011;34323;52.022;5.686;2023-04-06T09:31:23;28.58;;;14.90;;
48534;SDS011;34323;52.022;5.686;2023-04-06T09:33:53;24.92;;;13.82;;
48534;SDS011;34323;52.022;5.686;2023-04-06T09:36:19;33.35;;;16.00;;
48534;SDS011;34323;52.022;5.686;2023-04-06T09:39:01;22.58;;;13.60;;
48534;SDS011;34323;52.022;5.686;2023-04-06T09:41:29;33.45;;;16.52;;
48534;SDS011;34323;52.022;5.686;2023-04-06T09:44:06;26.92;;;15.35;;
48534;SDS011;34323;52.022;5.686;2023-04-06T09:46:40;28.27;;;14.93;;
48534;SDS011;34323;52.022;5.686;2023-04-06T09:49:07;31.00;;;15.13;;
48534;SDS011;34323;52.022;5.686;2023-04-06T09:51:37;27.45;;;15.13;;
48534;SDS011;34323;52.022;5.686;2023-04-06T09:54:09;24.65;;;13.93;;
48534;SDS011;34323;52.022;5.686;2023-04-06T09:56:55;27.58;;;15.60;;
48534;SDS011;34323;52.022;5.686;2023-04-06T10:02:47;25.55;;;14.88;;
48534;SDS011;34323;52.022;5.686;2023-04-06T10:08:08;26.67;;;15.63;;
48534;SDS011;34323;52.022;5.686;2023-04-06T10:10:35;28.52;;;14.77;;
48534;SDS011;34323;52.022;5.686;2023-04-06T10:13:01;27.33;;;14.55;;
48534;SDS011;34323;52.022;5.686;2023-04-06T10:15:28;27.17;;;15.73;;
48534;SDS011;34323;52.022;5.686;2023-04-06T10:17:55;32.17;;;14.38;;
48534;SDS011;34323;52.022;5.686;2023-04-06T10:20:29;23.30;;;14.13;;
48534;SDS011;34323;52.022;5.686;2023-04-06T10:23:16;26.17;;;13.85;;
48534;SDS011;34323;52.022;5.686;2023-04-06T10:25:54;29.77;;;15.60;;
48534;SDS011;34323;52.022;5.686;2023-04-06T10:28:21;25.60;;;14.65;;
48534;SDS011;34323;52.022;5.686;2023-04-06T10:30:47;29.58;;;15.05;;
48534;SDS011;34323;52.022;5.686;2023-04-06T10:33:13;25.08;;;15.27;;
48534;SDS011;34323;52.022;5.686;2023-04-06T10:35:40;24.73;;;14.00;;
48534;SDS011;34323;52.022;5.686;2023-04-06T10:38:06;20.77;;;12.95;;
48534;SDS011;34323;52.022;5.686;2023-04-06T10:40:32;23.67;;;13.07;;
48534;SDS011;34323;52.022;5.686;2023-04-06T10:43:08;23.02;;;13.23;;
48534;SDS011;34323;52.022;5.686;2023-04-06T10:45:38;24.17;;;12.43;;
48534;SDS011;34323;52.022;5.686;2023-04-06T10:48:15;20.98;;;12.45;;
48534;SDS011;34323;52.022;5.686;2023-04-06T10:50:47;19.92;;;11.88;;
48534;SDS011;34323;52.022;5.686;2023-04-06T10:53:23;19.57;;;11.37;;
48534;SDS011;34323;52.022;5.686;2023-04-06T10:55:50;22.35;;;11.43;;
48534;SDS011;34323;52.022;5.686;2023-04-06T10:58:17;23.55;;;13.00;;
48534;SDS011;34323;52.022;5.686;2023-04-06T11:00:47;19.02;;;11.25;;
48534;SDS011;34323;52.022;5.686;2023-04-06T11:03:14;19.15;;;11.77;;
48534;SDS011;34323;52.022;5.686;2023-04-06T11:05:47;17.95;;;11.60;;
48534;SDS011;34323;52.022;5.686;2023-04-06T11:08:24;19.08;;;12.95;;
48534;SDS011;34323;52.022;5.686;2023-04-06T11:13:42;18.48;;;10.60;;
48534;SDS011;34323;52.022;5.686;2023-04-06T11:18:47;17.25;;;9.25;;
48534;SDS011;34323;52.022;5.686;2023-04-06T11:21:13;14.88;;;9.32;;
48534;SDS011;34323;52.022;5.686;2023-04-06T11:23:39;17.38;;;8.90;;
48534;SDS011;34323;52.022;5.686;2023-04-06T11:26:09;14.52;;;8.00;;
48534;SDS011;34323;52.022;5.686;2023-04-06T11:28:35;17.75;;;9.07;;
48534;SDS011;34323;52.022;5.686;2023-04-06T11:31:01;13.07;;;8.23;;
48534;SDS011;34323;52.022;5.686;2023-04-06T11:33:28;17.30;;;9.07;;
48534;SDS011;34323;52.022;5.686;2023-04-06T11:35:56;16.65;;;8.75;;
48534;SDS011;34323;52.022;5.686;2023-04-06T11:38:22;15.48;;;8.85;;
48534;SDS011;34323;52.022;5.686;2023-04-06T11:40:52;13.98;;;8.70;;
48534;SDS011;34323;52.022;5.686;2023-04-06T11:43:25;15.10;;;8.65;;
48534;SDS011;34323;52.022;5.686;2023-04-06T11:45:58;12.13;;;7.28;;
48534;SDS011;34323;52.022;5.686;2023-04-06T11:48:26;17.23;;;7.72;;
48534;SDS011;34323;52.022;5.686;2023-04-06T11:50:58;13.65;;;7.18;;
48534;SDS011;34323;52.022;5.686;2023-04-06T11:53:29;13.50;;;8.60;;
48534;SDS011;34323;52.022;5.686;2023-04-06T11:55:55;11.95;;;7.05;;
48534;SDS011;34323;52.022;5.686;2023-04-06T11:58:21;13.02;;;8.20;;
48534;SDS011;34323;52.022;5.686;2023-04-06T12:00:47;16.00;;;7.40;;
48534;SDS011;34323;52.022;5.686;2023-04-06T12:03:13;13.50;;;8.02;;
48534;SDS011;34323;52.022;5.686;2023-04-06T12:05:39;12.52;;;8.43;;
48534;SDS011;34323;52.022;5.686;2023-04-06T12:08:05;14.07;;;8.52;;
48534;SDS011;34323;52.022;5.686;2023-04-06T12:10:31;15.45;;;8.50;;
48534;SDS011;34323;52.022;5.686;2023-04-06T12:12:56;12.40;;;7.10;;
48534;SDS011;34323;52.022;5.686;2023-04-06T12:15:22;13.75;;;6.88;;
48534;SDS011;34323;52.022;5.686;2023-04-06T12:17:47;16.45;;;6.85;;
48534;SDS011;34323;52.022;5.686;2023-04-06T12:20:14;13.20;;;7.22;;
48534;SDS011;34323;52.022;5.686;2023-04-06T12:22:40;15.73;;;7.13;;
48534;SDS011;34323;52.022;5.686;2023-04-06T12:25:05;13.52;;;8.05;;
48534;SDS011;34323;52.022;5.686;2023-04-06T12:27:32;12.20;;;7.03;;
48534;SDS011;34323;52.022;5.686;2023-04-06T12:29:57;10.77;;;6.20;;
48534;SDS011;34323;52.022;5.686;2023-04-06T12:32:23;10.30;;;6.55;;
48534;SDS011;34323;52.022;5.686;2023-04-06T12:34:50;9.98;;;5.40;;
48534;SDS011;34323;52.022;5.686;2023-04-06T12:37:17;10.15;;;5.95;;
48534;SDS011;34323;52.022;5.686;2023-04-06T12:39:42;11.63;;;6.22;;
48534;SDS011;34323;52.022;5.686;2023-04-06T12:42:09;12.90;;;6.07;;
48534;SDS011;34323;52.022;5.686;2023-04-06T12:44:35;14.00;;;5.88;;
48534;SDS011;34323;52.022;5.686;2023-04-06T12:47:01;14.40;;;6.22;;
48534;SDS011;34323;52.022;5.686;2023-04-06T12:49:27;13.73;;;5.80;;
48534;SDS011;34323;52.022;5.686;2023-04-06T12:51:53;10.32;;;6.00;;
48534;SDS011;34323;52.022;5.686;2023-04-06T12:54:18;14.48;;;6.18;;
48534;SDS011;34323;52.022;5.686;2023-04-06T12:56:44;10.98;;;6.18;;
48534;SDS011;34323;52.022;5.686;2023-04-06T12:59:10;12.10;;;6.07;;
48534;SDS011;34323;52.022;5.686;2023-04-06T13:01:36;10.68;;;6.07;;
48534;SDS011;34323;52.022;5.686;2023-04-06T13:04:02;10.88;;;6.57;;
48534;SDS011;34323;52.022;5.686;2023-04-06T13:06:28;14.02;;;6.07;;
48534;SDS011;34323;52.022;5.686;2023-04-06T13:08:54;10.75;;;6.32;;
48534;SDS011;34323;52.022;5.686;2023-04-06T13:11:20;12.13;;;5.90;;
48534;SDS011;34323;52.022;5.686;2023-04-06T13:13:48;11.82;;;6.63;;
48534;SDS011;34323;52.022;5.686;2023-04-06T13:16:13;11.90;;;6.22;;
48534;SDS011;34323;52.022;5.686;2023-04-06T13:18:40;13.55;;;6.28;;
48534;SDS011;34323;52.022;5.686;2023-04-06T13:21:06;11.57;;;7.03;;
48534;SDS011;34323;52.022;5.686;2023-04-06T13:23:32;13.75;;;6.65;;
48534;SDS011;34323;52.022;5.686;2023-04-06T13:26:02;12.95;;;7.45;;
48534;SDS011;34323;52.022;5.686;2023-04-06T13:28:29;14.27;;;7.10;;
48534;SDS011;34323;52.022;5.686;2023-04-06T13:30:55;14.75;;;7.40;;
48534;SDS011;34323;52.022;5.686;2023-04-06T13:33:23;14.27;;;8.57;;
48534;SDS011;34323;52.022;5.686;2023-04-06T13:35:48;11.35;;;6.53;;
48534;SDS011;34323;52.022;5.686;2023-04-06T13:38:15;12.60;;;6.50;;
48534;SDS011;34323;52.022;5.686;2023-04-06T13:40:41;12.18;;;7.03;;
48534;SDS011;34323;52.022;5.686;2023-04-06T13:43:07;12.60;;;7.78;;
48534;SDS011;34323;52.022;5.686;2023-04-06T13:45:33;13.40;;;7.40;;
48534;SDS011;34323;52.022;5.686;2023-04-06T13:47:58;13.68;;;7.47;;
48534;SDS011;34323;52.022;5.686;2023-04-06T13:50:27;11.65;;;7.13;;
48534;SDS011;34323;52.022;5.686;2023-04-06T13:52:53;12.63;;;7.55;;
48534;SDS011;34323;52.022;5.686;2023-04-06T13:55:19;16.27;;;7.97;;
48534;SDS011;34323;52.022;5.686;2023-04-06T13:57:45;12.98;;;7.00;;
48534;SDS011;34323;52.022;5.686;2023-04-06T14:00:10;13.55;;;7.68;;
48534;SDS011;34323;52.022;5.686;2023-04-06T14:02:37;12.68;;;7.25;;
48534;SDS011;34323;52.022;5.686;2023-04-06T14:05:04;12.25;;;7.60;;
48534;SDS011;34323;52.022;5.686;2023-04-06T14:07:30;14.27;;;8.40;;
48534;SDS011;34323;52.022;5.686;2023-04-06T14:09:55;16.20;;;7.88;;
48534;SDS011;34323;52.022;5.686;2023-04-06T14:12:21;13.23;;;7.60;;
48534;SDS011;34323;52.022;5.686;2023-04-06T14:14:46;14.57;;;7.43;;
48534;SDS011;34323;52.022;5.686;2023-04-06T14:17:12;15.77;;;7.65;;
48534;SDS011;34323;52.022;5.686;2023-04-06T14:19:38;15.13;;;8.00;;
48534;SDS011;34323;52.022;5.686;2023-04-06T14:22:03;14.45;;;8.07;;
48534;SDS011;34323;52.022;5.686;2023-04-06T14:24:29;17.23;;;8.50;;
48534;SDS011;34323;52.022;5.686;2023-04-06T14:26:55;13.93;;;8.93;;
48534;SDS011;34323;52.022;5.686;2023-04-06T14:29:21;16.98;;;9.05;;
48534;SDS011;34323;52.022;5.686;2023-04-06T14:31:47;15.38;;;8.18;;
48534;SDS011;34323;52.022;5.686;2023-04-06T14:34:13;17.08;;;9.07;;
48534;SDS011;34323;52.022;5.686;2023-04-06T14:36:41;16.50;;;9.40;;
48534;SDS011;34323;52.022;5.686;2023-04-06T14:39:07;14.88;;;9.02;;